Time;durP1;ratioP1;P1;durP2;ratioP2;P2;SDS_P1;SDS_P2;PMS_P1;PMS_P2;Temp;Humidity;BMP_temperature;BMP_pressure;BME280_temperature;BME280_humidity;BME280_pressure;Samples;Min_cycle;Max_cycle;Signal;HPM_P1;HPM_P2
2021/11/14 00:01:43;;;;;;;20.33;14.23;;;;;;;2.15;80.89;100707.92;1712874;82;21418;-54
2021/11/14 00:04:10;;;;;;;21.43;14.10;;;;;;;2.16;80.93;100708.81;1713232;82;21552;-55
2021/11/14 00:06:38;;;;;;;24.83;14.30;;;;;;;2.16;80.92;100704.83;1714320;82;21459;-55
2021/11/14 00:09:05;;;;;;;22.47;13.83;;;;;;;2.16;80.95;100701.73;1716224;82;21619;-56
2021/11/14 00:11:31;;;;;;;16.17;12.77;;;;;;;2.17;80.93;100703.95;1712989;82;21471;-55
2021/11/14 00:13:58;;;;;;;21.87;16.03;;;;;;;2.18;80.92;100708.38;1718433;82;21468;-55
2021/11/14 00:16:26;;;;;;;25.07;14.90;;;;;;;2.17;80.87;100708.83;1716478;82;21529;-54
2021/11/14 00:18:53;;;;;;;31.07;16.97;;;;;;;2.15;80.80;100709.26;1716863;82;21088;-55
2021/11/14 00:21:21;;;;;;;23.50;16.57;;;;;;;2.12;80.83;100706.62;1714431;82;21107;-55
2021/11/14 00:23:47;;;;;;;23.97;16.50;;;;;;;2.09;80.84;100702.63;1714419;82;21535;-55
2021/11/14 00:26:13;;;;;;;22.17;14.30;;;;;;;2.07;80.88;100699.51;1716021;82;21038;-56
2021/11/14 00:28:42;;;;;;;26.37;15.10;;;;;;;2.06;80.91;100703.05;1714866;82;21099;-55
2021/11/14 00:31:16;;;;;;;20.73;13.40;;;;;;;2.06;80.93;100707.91;1711151;82;21124;-55
2021/11/14 00:33:44;;;;;;;20.70;13.57;;;;;;;2.09;80.97;100704.39;1696734;82;22378;-55
2021/11/14 00:36:11;;;;;;;21.50;13.40;;;;;;;2.12;81.04;100705.73;1695814;82;21072;-54
2021/11/14 00:38:38;;;;;;;23.17;14.43;;;;;;;2.14;81.02;100706.59;1692604;82;20989;-55
2021/11/14 00:41:05;;;;;;;22.50;14.33;;;;;;;2.16;81.04;100708.37;1686453;83;20914;-56
2021/11/14 00:43:32;;;;;;;21.23;13.73;;;;;;;2.18;81.05;100711.92;1687681;83;20900;-56
2021/11/14 00:45:58;;;;;;;23.23;14.83;;;;;;;2.19;81.00;100696.88;1686984;83;21193;-55
2021/11/14 00:48:25;;;;;;;25.17;16.13;;;;;;;2.19;81.02;100696.88;1682433;83;21150;-55
2021/11/14 00:50:51;;;;;;;23.07;16.20;;;;;;;2.20;81.01;100699.98;1682591;83;21137;-55
2021/11/14 00:53:18;;;;;;;24.60;15.33;;;;;;;2.22;80.99;100700.41;1679320;83;21065;-55
2021/11/14 00:55:45;;;;;;;22.87;15.33;;;;;;;2.22;80.98;100690.22;1678018;83;21073;-56
2021/11/14 00:58:11;;;;;;;20.33;14.67;;;;;;;2.23;80.97;100690.66;1737592;80;21153;-55
2021/11/14 01:00:37;;;;;;;21.57;13.53;;;;;;;2.25;80.97;100694.22;1735249;80;21105;-56
2021/11/14 01:03:05;;;;;;;21.63;14.37;;;;;;;2.28;80.98;100692.45;1737129;80;21085;-56
2021/11/14 01:05:32;;;;;;;22.13;13.97;;;;;;;2.32;81.00;100694.66;1747177;80;20919;-55
2021/11/14 01:07:59;;;;;;;20.83;14.33;;;;;;;2.38;81.01;100701.31;1741317;80;21029;-56
2021/11/14 01:10:29;;;;;;;18.83;14.43;;;;;;;2.43;81.07;100700.86;1739423;80;21608;-55
2021/11/14 01:12:57;;;;;;;20.70;15.23;;;;;;;2.50;81.04;100701.73;1739435;80;21065;-55
2021/11/14 01:15:25;;;;;;;21.93;15.80;;;;;;;2.53;80.94;100697.76;1738715;80;21100;-55
2021/11/14 01:17:52;;;;;;;19.47;15.20;;;;;;;2.55;80.90;100692.86;1739902;80;20994;-56
2021/11/14 01:20:23;;;;;;;23.00;15.67;;;;;;;2.57;80.85;100695.08;1737657;80;20903;-56
2021/11/14 01:22:51;;;;;;;23.93;17.33;;;;;;;2.58;80.74;100694.64;1739874;80;21101;-56
2021/11/14 01:25:18;;;;;;;25.60;17.23;;;;;;;2.57;80.58;100688.88;1743111;80;20973;-55
2021/11/14 01:27:44;;;;;;;26.57;17.87;;;;;;;2.54;80.54;100684.92;1741689;80;20895;-55
2021/11/14 01:30:14;;;;;;;28.27;16.60;;;;;;;2.53;80.53;100686.69;1739765;80;20958;-55
2021/11/14 01:32:41;;;;;;;21.87;15.03;;;;;;;2.53;80.49;100682.70;1742795;80;20958;-55
2021/11/14 01:35:08;;;;;;;23.87;15.97;;;;;;;2.55;80.50;100685.36;1739033;80;21098;-54
2021/11/14 01:37:34;;;;;;;23.33;16.20;;;;;;;2.55;80.47;100680.91;1738909;80;20871;-56
2021/11/14 01:40:01;;;;;;;20.87;16.77;;;;;;;2.59;80.46;100681.80;1736810;80;20954;-56
2021/11/14 01:42:28;;;;;;;22.63;16.83;;;;;;;2.62;80.43;100684.02;1736027;80;20924;-56
2021/11/14 01:44:54;;;;;;;26.07;17.50;;;;;;;2.64;80.41;100684.87;1739388;80;20922;-56
2021/11/14 01:47:20;;;;;;;24.50;17.67;;;;;;;2.66;80.26;100683.55;1739162;80;21110;-55
2021/11/14 01:49:47;;;;;;;27.63;18.27;;;;;;;2.65;80.15;100684.00;1740523;80;20907;-54
2021/11/14 01:52:21;;;;;;;27.27;18.33;;;;;;;2.63;80.13;100682.25;1688119;81;20910;-55
2021/11/14 01:54:47;;;;;;;25.82;17.82;;;;;;;2.61;80.09;100682.25;1742581;80;20930;-56
2021/11/14 01:57:13;;;;;;;25.90;17.77;;;;;;;2.59;80.00;100689.77;1744201;80;21397;-56
2021/11/14 01:59:40;;;;;;;23.33;16.33;;;;;;;2.53;79.92;100673.84;1743335;80;21544;-55
2021/11/14 02:02:06;;;;;;;24.93;14.43;;;;;;;2.52;79.96;100681.37;1740185;80;21467;-56
2021/11/14 02:04:33;;;;;;;21.60;15.33;;;;;;;2.52;80.01;100680.92;1739036;80;21350;-56
2021/11/14 02:06:59;;;;;;;23.40;16.43;;;;;;;2.54;80.05;100680.48;1741942;80;21936;-55
2021/11/14 02:09:27;;;;;;;20.80;15.97;;;;;;;2.59;80.00;100683.12;1741075;80;21468;-55
2021/11/14 02:11:53;;;;;;;22.03;15.83;;;;;;;2.61;79.99;100678.27;1706930;80;21603;-55
2021/11/14 02:14:20;;;;;;;24.70;17.57;;;;;;;2.63;79.94;100680.48;1737153;80;21561;-56
2021/11/14 02:16:46;;;;;;;22.67;16.23;;;;;;;2.62;79.82;100678.70;1741329;80;21407;-55
2021/11/14 02:19:12;;;;;;;26.87;19.10;;;;;;;2.62;79.75;100682.69;1699980;82;21646;-54
2021/11/14 02:21:39;;;;;;;24.93;16.80;;;;;;;2.61;79.72;100680.92;1676811;83;21104;-55
2021/11/14 02:24:06;;;;;;;28.80;19.07;;;;;;;2.61;79.67;100686.67;1738713;80;22601;-55
2021/11/14 02:26:34;;;;;;;29.17;18.63;;;;;;;2.58;79.63;100681.35;1741602;80;20911;-55
2021/11/14 02:29:00;;;;;;;23.17;17.13;;;;;;;2.55;79.56;100682.23;1734456;80;21108;-55
2021/11/14 02:31:27;;;;;;;26.40;17.10;;;;;;;2.52;79.50;100690.23;1730292;81;21142;-55
2021/11/14 02:33:54;;;;;;;20.00;14.50;;;;;;;2.51;79.54;100692.88;1737549;81;20977;-55
2021/11/14 02:36:20;;;;;;;26.67;15.37;;;;;;;2.51;79.60;100690.22;1732998;81;21124;-56
2021/11/14 02:38:48;;;;;;;26.63;17.03;;;;;;;2.52;79.56;100693.33;1696498;82;21050;-55
2021/11/14 02:41:14;;;;;;;30.37;18.83;;;;;;;2.52;79.58;100690.23;1675317;83;21043;-56
2021/11/14 02:43:44;;;;;;;28.67;18.90;;;;;;;2.53;79.61;100688.02;1682235;83;21105;-55
2021/11/14 02:46:11;;;;;;;28.57;17.07;;;;;;;2.53;79.55;100696.44;1740639;80;20927;-54
2021/11/14 02:48:38;;;;;;;33.77;19.67;;;;;;;2.50;79.48;100698.64;1740207;80;21905;-55
2021/11/14 02:51:08;;;;;;;30.23;18.93;;;;;;;2.47;79.49;100693.75;1737132;80;21441;-55
2021/11/14 02:53:35;;;;;;;28.80;19.50;;;;;;;2.45;79.48;100692.89;1736106;80;21058;-55
2021/11/14 02:56:01;;;;;;;29.87;17.17;;;;;;;2.40;79.51;100695.53;1737833;80;21030;-54
2021/11/14 02:58:28;;;;;;;28.53;17.80;;;;;;;2.39;79.50;100695.53;1736077;80;21701;-55
2021/11/14 03:01:03;;;;;;;28.70;17.67;;;;;;;2.37;79.53;100696.00;1743035;80;22626;-55
2021/11/14 03:03:30;;;;;;;22.03;14.67;;;;;;;2.37;79.57;100690.24;1734986;80;21042;-55
2021/11/14 03:05:57;;;;;;;22.53;15.57;;;;;;;2.37;79.63;100696.00;1738390;80;21050;-54
2021/11/14 03:08:24;;;;;;;23.90;15.80;;;;;;;2.34;79.62;100688.91;1739575;80;20959;-55
2021/11/14 03:10:52;;;;;;;27.63;17.33;;;;;;;2.34;79.75;100694.22;1739056;80;21013;-55
2021/11/14 03:13:20;;;;;;;24.50;15.83;;;;;;;2.34;79.71;100689.34;1737421;80;21117;-54
2021/11/14 03:15:58;;;;;;;23.00;16.97;;;;;;;2.32;79.69;100693.77;1737206;80;21350;-54
2021/11/14 03:18:25;;;;;;;28.73;17.70;;;;;;;2.30;79.66;100688.92;1738985;80;21405;-55
2021/11/14 03:20:52;;;;;;;26.70;18.43;;;;;;;2.25;79.70;100697.76;1740224;80;21456;-55
2021/11/14 03:23:19;;;;;;;28.30;16.27;;;;;;;2.22;79.73;100698.19;1735818;80;21500;-55
2021/11/14 03:25:45;;;;;;;21.23;14.53;;;;;;;2.20;79.73;100695.56;1741080;80;21933;-55
2021/11/14 03:28:12;;;;;;;20.27;14.47;;;;;;;2.18;79.76;100692.00;1737557;80;21033;-54
2021/11/14 03:30:38;;;;;;;19.17;14.37;;;;;;;2.16;79.82;100691.55;1738016;80;21627;-55
2021/11/14 03:33:08;;;;;;;18.60;13.30;;;;;;;2.14;79.87;100689.33;1733534;80;21633;-55
2021/11/14 03:35:40;;;;;;;19.70;15.00;;;;;;;2.12;79.94;100694.67;1737390;80;21447;-55
2021/11/14 03:38:08;;;;;;;19.53;12.43;;;;;;;2.11;80.04;100683.59;1735991;80;21090;-54
2021/11/14 03:40:35;;;;;;;19.93;13.40;;;;;;;2.12;80.06;100683.16;1733994;80;20914;-55
2021/11/14 03:43:01;;;;;;;34.27;14.43;;;;;;;2.08;80.04;100681.37;1730338;80;20955;-55
2021/11/14 03:45:28;;;;;;;17.97;11.70;;;;;;;2.03;80.10;100685.36;1726151;80;21110;-55
2021/11/14 03:47:54;;;;;;;35.17;14.47;;;;;;;1.97;80.14;100680.45;1724873;80;21087;-55
2021/11/14 03:50:20;;;;;;;18.93;12.60;;;;;;;1.92;80.22;100679.14;1725857;80;21706;-55
2021/11/14 03:52:47;;;;;;;17.00;12.03;;;;;;;1.89;80.28;100680.45;1730049;80;21523;-55
2021/11/14 03:55:13;;;;;;;18.83;13.40;;;;;;;1.86;80.44;100679.14;1730058;80;21065;-56
2021/11/14 03:57:42;;;;;;;18.60;12.43;;;;;;;1.86;80.55;100671.17;1732369;80;21021;-56
2021/11/14 04:00:19;;;;;;;18.73;13.73;;;;;;;1.88;80.71;100681.33;1732449;80;20986;-56
2021/11/14 04:02:46;;;;;;;15.40;12.93;;;;;;;1.89;80.78;100677.36;1735613;80;21110;-54
2021/11/14 04:05:12;;;;;;;22.37;14.50;;;;;;;1.88;80.86;100677.34;1730654;80;21180;-55
2021/11/14 04:07:40;;;;;;;16.67;13.97;;;;;;;1.88;80.93;100682.66;1737226;80;20982;-55
2021/11/14 04:10:08;;;;;;;19.47;13.70;;;;;;;1.87;81.07;100687.55;1734092;80;21446;-54
2021/11/14 04:12:34;;;;;;;25.27;14.83;;;;;;;1.88;81.12;100693.28;1736139;80;21057;-54
2021/11/14 04:15:01;;;;;;;22.33;12.77;;;;;;;1.86;81.15;100693.30;1730007;80;21094;-55
2021/11/14 04:17:27;;;;;;;17.67;13.47;;;;;;;1.87;81.17;100694.19;1727262;80;21038;-55
2021/11/14 04:19:53;;;;;;;18.67;12.70;;;;;;;1.85;81.16;100691.97;1728432;80;21114;-55
2021/11/14 04:22:20;;;;;;;14.97;12.20;;;;;;;1.86;81.25;100693.74;1727206;80;21022;-55
2021/11/14 04:24:46;;;;;;;17.67;11.63;;;;;;;1.88;81.31;100690.63;1725898;80;22559;-55
2021/11/14 04:27:13;;;;;;;16.00;12.60;;;;;;;1.88;81.31;100691.95;1730506;80;22238;-55
2021/11/14 04:29:39;;;;;;;23.07;13.60;;;;;;;1.88;81.36;100686.20;1728471;80;21105;-55
2021/11/14 04:32:07;;;;;;;20.20;13.63;;;;;;;1.89;81.43;100695.05;1726303;80;21141;-55
2021/11/14 04:34:33;;;;;;;21.00;14.57;;;;;;;1.88;81.43;100694.17;1735244;80;20918;-55
2021/11/14 04:36:59;;;;;;;17.83;13.33;;;;;;;1.87;81.37;100688.88;1735906;80;20961;-54
2021/11/14 04:39:26;;;;;;;21.00;14.03;;;;;;;1.84;81.38;100696.39;1736188;80;21103;-55
2021/11/14 04:41:52;;;;;;;20.50;13.33;;;;;;;1.80;81.46;100691.94;1745559;80;20995;-55
2021/11/14 04:44:19;;;;;;;21.10;13.23;;;;;;;1.80;81.52;100687.95;1749790;80;20926;-55
2021/11/14 04:46:45;;;;;;;18.80;12.40;;;;;;;1.80;81.59;100689.72;1752358;80;21976;-55
2021/11/14 04:49:12;;;;;;;21.63;13.60;;;;;;;1.79;81.62;100688.84;1742882;80;21486;-55
2021/11/14 04:51:39;;;;;;;20.57;14.30;;;;;;;1.79;81.66;100686.19;1744924;80;22284;-55
2021/11/14 04:54:05;;;;;;;18.40;14.20;;;;;;;1.84;81.79;100687.53;1749030;80;21001;-54
2021/11/14 04:56:33;;;;;;;18.20;12.87;;;;;;;1.87;81.81;100690.20;1746797;80;20936;-55
2021/11/14 04:58:59;;;;;;;22.43;15.33;;;;;;;1.89;81.81;100689.74;1744005;80;21343;-55
2021/11/14 05:01:26;;;;;;;23.70;15.97;;;;;;;1.91;81.77;100685.33;1744128;80;21555;-54
2021/11/14 05:03:52;;;;;;;22.10;15.20;;;;;;;1.91;81.74;100695.95;1739031;80;21197;-54
2021/11/14 05:06:19;;;;;;;25.43;16.53;;;;;;;1.89;81.65;100696.38;1739743;80;21045;-55
2021/11/14 05:08:45;;;;;;;23.70;15.37;;;;;;;1.88;81.68;100697.27;1747128;80;21125;-55
2021/11/14 05:11:11;;;;;;;22.67;14.57;;;;;;;1.90;81.70;100696.83;1745407;80;21062;-55
2021/11/14 05:13:37;;;;;;;20.63;14.23;;;;;;;1.89;81.74;100698.59;1743093;80;21044;-55
2021/11/14 05:16:04;;;;;;;22.80;14.30;;;;;;;1.92;81.73;100702.15;1740127;80;21136;-54
2021/11/14 05:18:30;;;;;;;26.43;16.40;;;;;;;1.93;81.80;100698.61;1738296;80;21068;-55
2021/11/14 05:20:57;;;;;;;22.03;15.33;;;;;;;1.95;81.82;100700.40;1743628;80;21266;-55
2021/11/14 05:23:23;;;;;;;25.33;16.87;;;;;;;1.97;81.89;100700.38;1741625;80;21516;-54
2021/11/14 05:25:50;;;;;;;25.70;16.23;;;;;;;1.99;81.85;100706.14;1747281;80;21436;-54
2021/11/14 05:28:17;;;;;;;27.03;17.60;;;;;;;2.01;81.79;100702.16;1745329;80;22643;-55
2021/11/14 05:30:43;;;;;;;29.63;17.40;;;;;;;2.00;81.80;100708.36;1739144;80;21487;-54
2021/11/14 05:33:10;;;;;;;31.13;18.33;;;;;;;1.98;81.80;100707.45;1742115;80;21187;-54
2021/11/14 05:35:36;;;;;;;25.90;15.97;;;;;;;2.00;81.80;100707.03;1740269;80;21143;-54
2021/11/14 05:38:02;;;;;;;27.63;16.33;;;;;;;2.00;81.80;100709.24;1738948;80;21527;-54
2021/11/14 05:40:29;;;;;;;21.33;15.67;;;;;;;2.02;81.80;100711.47;1702359;82;21234;-55
2021/11/14 05:42:55;;;;;;;24.80;16.07;;;;;;;2.04;81.83;100712.80;1726172;81;21062;-55
2021/11/14 05:45:21;;;;;;;21.90;15.33;;;;;;;2.06;81.86;100721.20;1726403;81;21045;-54
2021/11/14 05:47:48;;;;;;;22.27;15.40;;;;;;;2.09;81.80;100726.52;1726369;81;21041;-54
2021/11/14 05:50:14;;;;;;;25.63;16.83;;;;;;;2.12;81.85;100727.87;1732045;80;21041;-55
2021/11/14 05:52:40;;;;;;;22.93;15.30;;;;;;;2.14;81.84;100729.17;1734762;80;21143;-55
2021/11/14 05:55:08;;;;;;;23.87;16.17;;;;;;;2.15;81.81;100727.84;1732856;80;22442;-54
2021/11/14 05:57:48;;;;;;;23.23;16.73;;;;;;;2.16;81.82;100730.06;1736242;80;20930;-54
2021/11/14 06:00:09;;;;;;;24.77;17.40;;;;;;;2.14;81.78;100727.41;1733679;80;20890;-54
2021/11/14 06:02:40;;;;;;;23.93;16.43;;;;;;;2.13;81.74;100736.25;1730690;80;20954;-54
2021/11/14 06:05:15;;;;;;;21.70;15.63;;;;;;;2.13;81.74;100744.22;1733855;80;21164;-54
2021/11/14 06:07:45;;;;;;;24.27;16.77;;;;;;;2.13;81.80;100740.23;1735037;81;21173;-54
2021/11/14 06:10:11;;;;;;;21.23;15.00;;;;;;;2.15;81.88;100745.11;1727576;81;21077;-55
2021/11/14 06:12:38;;;;;;;22.87;16.80;;;;;;;2.19;81.97;100745.58;1732757;81;21384;-55
2021/11/14 06:15:08;;;;;;;21.40;16.00;;;;;;;2.23;81.96;100742.47;1726344;81;21197;-54
2021/11/14 06:17:36;;;;;;;20.80;16.67;;;;;;;2.26;81.94;100742.04;1729059;80;21465;-54
2021/11/14 06:20:05;;;;;;;25.00;16.87;;;;;;;2.27;81.86;100752.22;1728826;80;21082;-54
2021/11/14 06:22:31;;;;;;;29.43;19.20;;;;;;;2.26;81.83;100744.70;1730003;80;21097;-55
2021/11/14 06:24:59;;;;;;;27.33;19.63;;;;;;;2.26;81.85;100745.14;1717187;80;21370;-54
2021/11/14 06:27:26;;;;;;;29.87;18.73;;;;;;;2.24;81.83;100745.13;1726114;80;21669;-54
2021/11/14 06:29:52;;;;;;;24.30;17.30;;;;;;;2.26;81.86;100740.71;1725660;81;21574;-54
2021/11/14 06:32:18;;;;;;;26.93;17.40;;;;;;;2.27;81.85;100746.47;1734519;80;21595;-54
2021/11/14 06:34:45;;;;;;;26.53;17.60;;;;;;;2.29;81.88;100746.48;1730385;81;21068;-54
2021/11/14 06:37:12;;;;;;;28.43;17.97;;;;;;;2.30;81.93;100748.22;1732081;81;21348;-53
2021/11/14 06:39:39;;;;;;;25.80;18.03;;;;;;;2.34;81.99;100747.80;1735394;81;21063;-55
2021/11/14 06:42:07;;;;;;;31.47;19.67;;;;;;;2.39;82.01;100750.89;1723245;81;21537;-54
2021/11/14 06:44:33;;;;;;;26.23;17.27;;;;;;;2.43;81.96;100746.48;1721414;81;21105;-54
2021/11/14 06:47:00;;;;;;;30.17;20.93;;;;;;;2.47;81.95;100749.13;1728314;81;21089;-54
2021/11/14 06:49:26;;;;;;;31.43;20.97;;;;;;;2.49;81.87;100748.69;1731304;80;21049;-54
2021/11/14 06:51:53;;;;;;;27.80;19.00;;;;;;;2.51;81.89;100751.34;1728997;80;21097;-54
2021/11/14 06:54:19;;;;;;;31.30;20.30;;;;;;;2.52;81.85;100753.13;1729391;80;21124;-55
2021/11/14 06:56:45;;;;;;;28.93;19.30;;;;;;;2.52;81.82;100749.14;1730365;80;21527;-54
2021/11/14 06:59:11;;;;;;;27.47;17.57;;;;;;;2.54;81.81;100752.69;1690237;82;21579;-55
2021/11/14 07:01:38;;;;;;;28.63;18.57;;;;;;;2.56;81.84;100751.78;1726576;80;21872;-55
2021/11/14 07:04:04;;;;;;;27.07;17.13;;;;;;;2.59;81.90;100753.56;1729821;80;21152;-55
2021/11/14 07:06:31;;;;;;;30.70;18.23;;;;;;;2.63;81.87;100754.02;1671903;83;21927;-54
2021/11/14 07:08:57;;;;;;;30.23;18.43;;;;;;;2.68;81.88;100749.58;1730961;80;21638;-54
2021/11/14 07:11:23;;;;;;;31.20;18.23;;;;;;;2.72;81.85;100749.14;1732093;81;21515;-54
2021/11/14 07:13:49;;;;;;;28.83;18.60;;;;;;;2.76;81.85;100748.23;1732877;80;21034;-54
2021/11/14 07:16:16;;;;;;;32.97;20.90;;;;;;;2.80;81.86;100743.38;1732728;80;21410;-54
2021/11/14 07:18:43;;;;;;;31.60;21.60;;;;;;;2.80;81.79;100749.58;1725043;80;21543;-55
2021/11/14 07:21:09;;;;;;;33.93;20.80;;;;;;;2.81;81.79;100744.67;1732743;80;21697;-55
2021/11/14 07:23:36;;;;;;;34.97;20.63;;;;;;;2.83;81.78;100750.00;1735463;80;21375;-54
2021/11/14 07:26:03;;;;;;;28.00;17.77;;;;;;;2.85;81.81;100754.44;1732326;80;20958;-54
2021/11/14 07:28:29;;;;;;;28.77;19.27;;;;;;;2.87;81.86;100748.68;1735961;80;20999;-55
2021/11/14 07:30:55;;;;;;;31.83;18.63;;;;;;;2.92;81.84;100751.31;1728777;80;21117;-55
2021/11/14 07:33:22;;;;;;;31.33;20.03;;;;;;;2.98;81.92;100752.19;1733117;81;20919;-55
2021/11/14 07:35:48;;;;;;;28.17;19.47;;;;;;;3.05;81.90;100750.42;1733454;80;20952;-54
2021/11/14 07:38:14;;;;;;;31.90;21.93;;;;;;;3.11;81.89;100745.52;1729427;81;21455;-53
2021/11/14 07:40:41;;;;;;;36.30;21.10;;;;;;;3.18;81.84;100749.94;1696281;82;21459;-55
2021/11/14 07:43:08;;;;;;;31.17;21.40;;;;;;;3.20;81.79;100742.84;1735115;80;21122;-53
2021/11/14 07:45:34;;;;;;;31.90;20.87;;;;;;;3.24;81.78;100745.92;1742305;81;20926;-54
2021/11/14 07:48:00;;;;;;;37.53;20.63;;;;;;;3.27;81.73;100744.15;1712559;81;20930;-54
2021/11/14 07:50:28;;;;;;;30.37;19.10;;;;;;;3.34;81.76;100744.56;1740709;81;20918;-55
2021/11/14 07:52:56;;;;;;;28.73;19.33;;;;;;;3.40;81.70;100743.68;1701103;82;20978;-55
2021/11/14 07:55:22;;;;;;;36.10;20.93;;;;;;;3.45;81.62;100743.20;1732892;81;21088;-53
2021/11/14 07:57:48;;;;;;;35.07;21.87;;;;;;;3.49;81.63;100732.11;1739756;81;21078;-54
2021/11/14 08:00:19;;;;;;;34.47;20.27;;;;;;;3.53;81.56;100741.40;1738622;80;21531;-54
2021/11/14 08:02:45;;;;;;;33.73;21.50;;;;;;;3.55;81.43;100739.63;1705935;82;22656;-54
2021/11/14 08:05:12;;;;;;;30.20;20.77;;;;;;;3.56;81.42;100740.51;1739910;80;22090;-54
2021/11/14 08:07:38;;;;;;;32.13;19.33;;;;;;;3.61;81.43;100741.36;1736531;80;21487;-55
2021/11/14 08:10:06;;;;;;;37.70;21.07;;;;;;;3.67;81.43;100737.33;1702927;82;21128;-54
2021/11/14 08:12:33;;;;;;;31.07;19.70;;;;;;;3.74;81.41;100741.77;1738535;80;21053;-55
2021/11/14 08:14:59;;;;;;;39.13;22.67;;;;;;;3.80;81.38;100745.27;1737501;80;21065;-55
2021/11/14 08:17:26;;;;;;;34.10;22.03;;;;;;;3.87;81.29;100742.57;1733447;80;21032;-55
2021/11/14 08:19:55;;;;;;;35.57;22.27;;;;;;;3.92;81.20;100735.42;1737732;80;22722;-55
2021/11/14 08:22:21;;;;;;;31.83;22.70;;;;;;;3.95;81.10;100732.31;1736729;80;21065;-54
2021/11/14 08:24:48;;;;;;;39.83;23.83;;;;;;;3.99;81.08;100733.19;1705060;82;21074;-55
2021/11/14 08:27:14;;;;;;;32.00;22.00;;;;;;;4.02;80.98;100731.81;1701750;82;21070;-55
2021/11/14 08:29:43;;;;;;;38.13;22.70;;;;;;;4.02;80.88;100728.70;1704909;82;21967;-54
2021/11/14 08:32:09;;;;;;;35.77;22.60;;;;;;;4.04;80.82;100730.92;1736462;80;21567;-55
2021/11/14 08:34:37;;;;;;;30.27;20.10;;;;;;;4.07;80.86;100725.59;1737177;80;21052;-55
2021/11/14 08:37:04;;;;;;;36.57;21.50;;;;;;;4.11;80.89;100723.32;1736250;80;21097;-54
2021/11/14 08:39:30;;;;;;;31.80;21.33;;;;;;;4.12;80.73;100719.77;1737118;80;21674;-54
2021/11/14 08:41:56;;;;;;;37.23;23.33;;;;;;;4.13;80.70;100716.21;1737359;80;21659;-55
2021/11/14 08:44:25;;;;;;;39.97;25.57;;;;;;;4.16;80.63;100714.87;1739887;80;21132;-55
2021/11/14 08:46:52;;;;;;;39.00;24.97;;;;;;;4.17;80.52;100713.95;1734226;80;21140;-54
2021/11/14 08:49:19;;;;;;;37.50;23.03;;;;;;;4.17;80.49;100715.27;1741937;80;20931;-54
2021/11/14 08:51:45;;;;;;;37.03;22.83;;;;;;;4.19;80.48;100711.28;1737597;80;21051;-55
2021/11/14 08:54:11;;;;;;;34.93;24.37;;;;;;;4.22;80.48;100705.05;1734983;81;21366;-55
2021/11/14 08:56:39;;;;;;;30.70;20.97;;;;;;;4.24;80.46;100708.59;1732671;81;21794;-56
2021/11/14 08:59:08;;;;;;;35.07;23.80;;;;;;;4.27;80.42;100705.89;1735021;80;21041;-54
2021/11/14 09:01:36;;;;;;;38.23;24.70;;;;;;;4.30;80.40;100705.88;1737761;80;21328;-55
2021/11/14 09:04:07;;;;;;;42.77;26.47;;;;;;;4.33;80.41;100701.42;1738177;80;21538;-55
2021/11/14 09:06:37;;;;;;;36.13;25.07;;;;;;;4.35;80.39;100699.59;1738443;80;21119;-55
2021/11/14 09:09:06;;;;;;;40.13;23.40;;;;;;;4.37;80.28;100699.59;1736874;80;21167;-56
2021/11/14 09:11:33;;;;;;;37.47;24.70;;;;;;;4.36;80.23;100697.82;1738359;80;21187;-55
2021/11/14 09:13:59;;;;;;;41.63;24.97;;;;;;;4.36;80.26;100692.48;1733153;80;21061;-55
2021/11/14 09:16:28;;;;;;;34.50;22.83;;;;;;;4.38;80.23;100696.92;1735733;80;21084;-56
2021/11/14 09:18:58;;;;;;;37.37;24.13;;;;;;;4.39;80.29;100699.14;1734883;80;21124;-55
2021/11/14 09:21:25;;;;;;;39.47;23.17;;;;;;;4.42;80.36;100703.12;1736838;80;22140;-56
2021/11/14 09:23:51;;;;;;;39.13;24.53;;;;;;;4.48;80.41;100705.73;1736205;80;21449;-56
2021/11/14 09:26:18;;;;;;;39.33;24.30;;;;;;;4.51;80.30;100702.56;1736271;80;21845;-56
2021/11/14 09:28:44;;;;;;;45.30;26.77;;;;;;;4.52;80.30;100699.01;1731633;80;21516;-55
2021/11/14 09:31:11;;;;;;;40.90;25.83;;;;;;;4.55;80.27;100696.33;1734435;80;21096;-56
2021/11/14 09:33:39;;;;;;;46.30;28.53;;;;;;;4.56;80.23;100695.44;1732631;80;21066;-56
2021/11/14 09:36:06;;;;;;;46.20;31.13;;;;;;;4.56;80.18;100691.44;1732828;80;21030;-56
2021/11/14 09:38:34;;;;;;;42.77;28.20;;;;;;;4.57;80.14;100692.32;1733786;80;21338;-55
2021/11/14 09:41:06;;;;;;;43.40;28.83;;;;;;;4.58;80.12;100687.87;1737335;80;20934;-55
2021/11/14 09:43:32;;;;;;;46.80;28.73;;;;;;;4.56;80.13;100679.44;1703573;82;21331;-55
2021/11/14 09:45:59;;;;;;;39.97;25.87;;;;;;;4.55;80.17;100669.67;1699683;82;21394;-56
2021/11/14 09:48:25;;;;;;;40.63;27.23;;;;;;;4.58;80.25;100672.77;1700747;82;21457;-55
2021/11/14 09:50:53;;;;;;;43.20;28.37;;;;;;;4.63;80.17;100667.37;1704004;82;20899;-56
2021/11/14 09:53:20;;;;;;;50.00;29.40;;;;;;;4.67;80.14;100667.80;1701144;82;20949;-56
2021/11/14 09:55:47;;;;;;;49.83;33.33;;;;;;;4.71;80.13;100666.84;1700542;82;21006;-56
2021/11/14 09:58:13;;;;;;;59.93;36.90;;;;;;;4.74;80.11;100662.38;1701168;82;21060;-56
2021/11/14 10:00:41;;;;;;;61.00;37.60;;;;;;;4.76;80.08;100668.59;1708433;82;20986;-55
2021/11/14 10:03:07;;;;;;;53.80;35.13;;;;;;;4.77;80.06;100663.66;1704214;82;20856;-55
2021/11/14 10:05:37;;;;;;;58.33;37.97;;;;;;;4.78;80.04;100665.43;1699966;82;20986;-55
2021/11/14 10:08:06;;;;;;;42.53;27.97;;;;;;;4.79;79.97;100666.31;1703662;82;21057;-56
2021/11/14 10:10:38;;;;;;;44.07;26.30;;;;;;;4.79;80.01;100659.64;1703312;82;21826;-56
2021/11/14 10:13:20;;;;;;;49.03;30.73;;;;;;;4.81;80.02;100661.41;1704880;82;21886;-56
2021/11/14 10:15:49;;;;;;;42.47;27.57;;;;;;;4.85;80.03;100656.91;1704368;82;20954;-55
2021/11/14 10:18:19;;;;;;;43.70;29.53;;;;;;;4.88;80.08;100658.22;1699323;82;20923;-55
2021/11/14 10:20:45;;;;;;;46.50;31.00;;;;;;;4.90;80.06;100651.98;1701230;82;21029;-56
2021/11/14 10:23:15;;;;;;;50.60;31.93;;;;;;;4.93;80.11;100654.59;1700431;82;20960;-56
2021/11/14 10:25:43;;;;;;;45.73;30.57;;;;;;;4.95;80.12;100659.91;1699026;82;21951;-56
2021/11/14 10:28:10;;;;;;;46.10;29.53;;;;;;;4.99;80.20;100655.44;1702268;82;21053;-56
2021/11/14 10:30:39;;;;;;;39.97;27.63;;;;;;;5.03;80.16;100652.70;1701698;82;21489;-56
2021/11/14 10:33:09;;;;;;;38.70;25.93;;;;;;;5.08;80.18;100649.55;1699249;82;21018;-56
2021/11/14 10:35:36;;;;;;;35.83;25.20;;;;;;;5.13;80.20;100648.14;1701933;82;21472;-56
2021/11/14 10:38:07;;;;;;;44.37;29.37;;;;;;;5.17;80.25;100657.45;1702707;82;20970;-55
2021/11/14 10:40:38;;;;;;;40.17;28.37;;;;;;;5.24;80.28;100649.80;1703066;82;21502;-56
2021/11/14 10:43:04;;;;;;;43.10;29.60;;;;;;;5.30;80.28;100654.16;1715531;81;20942;-56
2021/11/14 10:45:35;;;;;;;49.70;31.27;;;;;;;5.35;80.18;100641.66;1718375;81;20918;-56
2021/11/14 10:48:05;;;;;;;49.93;33.17;;;;;;;5.40;80.15;100646.92;1716636;81;21080;-55
2021/11/14 10:50:35;;;;;;;47.67;31.47;;;;;;;5.43;80.05;100641.11;1713676;81;21977;-55
2021/11/14 10:53:08;;;;;;;51.07;30.13;;;;;;;5.45;79.94;100642.39;1716745;81;20941;-56
2021/11/14 10:55:46;;;;;;;46.17;30.70;;;;;;;5.49;79.86;100638.80;1713162;81;20982;-56
2021/11/14 10:58:14;;;;;;;41.47;27.53;;;;;;;5.52;79.86;100636.09;1712201;81;21471;-56
2021/11/14 11:00:41;;;;;;;48.63;28.53;;;;;;;5.58;79.94;100641.34;1716426;81;21779;-56
2021/11/14 11:03:08;;;;;;;39.40;28.20;;;;;;;5.65;79.99;100637.23;1712752;81;21053;-54
2021/11/14 11:05:34;;;;;;;46.33;31.10;;;;;;;5.73;79.83;100637.11;1678427;83;21535;-55
2021/11/14 11:08:06;;;;;;;49.30;32.73;;;;;;;5.78;79.73;100635.27;1657681;84;21544;-54
2021/11/14 11:10:40;;;;;;;54.38;36.80;;;;;;;5.82;79.57;100625.41;1659535;84;21495;-55
2021/11/14 11:13:19;;;;;;;52.20;34.47;;;;;;;5.84;79.47;100627.16;1650472;85;21536;-56
2021/11/14 11:15:48;;;;;;;49.73;32.90;;;;;;;5.84;79.39;100632.95;1651556;85;21878;-56
2021/11/14 11:18:18;;;;;;;47.57;31.90;;;;;;;5.83;79.27;100620.05;1712540;81;21024;-55